METAR Data
IDs: Format: Raw Decoded Include TAF

Data at: 0753 UTC 08 May 2021

METAR for:K6B9 (Skaneateles Arpt, NY, US)
Text:K6B9 080735Z AUTO 00000KT 6SM RA BKN009 BKN013 OVC018 03/03 A2983 RMK AO2
Temperature: 3.0°C ( 37°F)
Dewpoint: 3.0°C ( 37°F) [RH = 100%]
Pressure (altimeter):29.83 inches Hg (1010.2 mb)
Winds:calm
Visibility: 6 sm ( 10 km)
Ceiling:900 feet AGL
Clouds: broken clouds at 900 feet AGL, broken clouds at 1300 feet AGL, overcast cloud deck at 1800 feet AGL
Weather:RA (moderate rain)
QC Flag:automated observation with no human augmentation
Text:K6B9 080715Z AUTO 00000KT 7SM -RA BKN010 OVC015 04/04 A2983 RMK AO2
Temperature: 4.0°C ( 39°F)
Dewpoint: 4.0°C ( 39°F) [RH = 100%]
Pressure (altimeter):29.83 inches Hg (1010.2 mb)
Winds:calm
Visibility: 7 sm ( 11 km)
Ceiling:1000 feet AGL
Clouds: broken clouds at 1000 feet AGL, overcast cloud deck at 1500 feet AGL
Weather:-RA (light rain)
QC Flag:automated observation with no human augmentation
Text:K6B9 080655Z AUTO 00000KT 6SM -RA FEW005 SCT009 OVC013 04/04 A2983 RMK AO2 P0014
Temperature: 4.0°C ( 39°F)
Dewpoint: 4.0°C ( 39°F) [RH = 100%]
Pressure (altimeter):29.83 inches Hg (1010.2 mb)
Winds:calm
Visibility: 6 sm ( 10 km)
Ceiling:1300 feet AGL
Clouds: few clouds at 500 feet AGL, scattered clouds at 900 feet AGL, overcast cloud deck at 1300 feet AGL
Weather:-RA (light rain)
QC Flag:automated observation with no human augmentation
Text:K6B9 080635Z AUTO 00000KT 5SM -RA BKN005 BKN011 OVC018 04/04 A2984 RMK AO2
Temperature: 4.0°C ( 39°F)
Dewpoint: 4.0°C ( 39°F) [RH = 100%]
Pressure (altimeter):29.84 inches Hg (1010.6 mb)
Winds:calm
Visibility: 5 sm ( 8 km)
Ceiling:500 feet AGL
Clouds: broken clouds at 500 feet AGL, broken clouds at 1100 feet AGL, overcast cloud deck at 1800 feet AGL
Weather:-RA (light rain)
QC Flag:automated observation with no human augmentation
Text:K6B9 080615Z AUTO VRB04KT 5SM -RA BKN005 OVC019 04/04 A2984 RMK AO2
Temperature: 4.0°C ( 39°F)
Dewpoint: 4.0°C ( 39°F) [RH = 100%]
Pressure (altimeter):29.84 inches Hg (1010.6 mb)
Winds:variable direction winds at 5 MPH (4 knots; 2.1 m/s)
Visibility: 5 sm ( 8 km)
Ceiling:500 feet AGL
Clouds: broken clouds at 500 feet AGL, overcast cloud deck at 1900 feet AGL
Weather:-RA (light rain)
QC Flag:automated observation with no human augmentation
Text:K6B9 080555Z AUTO 00000KT 6SM -RA BKN004 BKN011 OVC020 05/05 A2984 RMK AO2 P0007
Temperature: 5.0°C ( 41°F)
Dewpoint: 5.0°C ( 41°F) [RH = 100%]
Pressure (altimeter):29.84 inches Hg (1010.6 mb)
Winds:calm
Visibility: 6 sm ( 10 km)
Ceiling:400 feet AGL
Clouds: broken clouds at 400 feet AGL, broken clouds at 1100 feet AGL, overcast cloud deck at 2000 feet AGL
Weather:-RA (light rain)
QC Flag:automated observation with no human augmentation
Text:K6B9 080535Z AUTO 00000KT 5SM -RA BKN004 OVC007 05/05 A2984 RMK AO2
Temperature: 5.0°C ( 41°F)
Dewpoint: 5.0°C ( 41°F) [RH = 100%]
Pressure (altimeter):29.84 inches Hg (1010.6 mb)
Winds:calm
Visibility: 5 sm ( 8 km)
Ceiling:400 feet AGL
Clouds: broken clouds at 400 feet AGL, overcast cloud deck at 700 feet AGL
Weather:-RA (light rain)
QC Flag:automated observation with no human augmentation
Text:K6B9 080515Z AUTO 00000KT 6SM -RA BKN005 BKN011 OVC033 05/05 A2985 RMK AO2
Temperature: 5.0°C ( 41°F)
Dewpoint: 5.0°C ( 41°F) [RH = 100%]
Pressure (altimeter):29.85 inches Hg (1010.9 mb)
Winds:calm
Visibility: 6 sm ( 10 km)
Ceiling:500 feet AGL
Clouds: broken clouds at 500 feet AGL, broken clouds at 1100 feet AGL, overcast cloud deck at 3300 feet AGL
Weather:-RA (light rain)
QC Flag:automated observation with no human augmentation
Text:K6B9 080455Z AUTO 00000KT 5SM -RA SCT005 BKN010 OVC033 05/05 A2985 RMK AO2 P0003
Temperature: 5.0°C ( 41°F)
Dewpoint: 5.0°C ( 41°F) [RH = 100%]
Pressure (altimeter):29.85 inches Hg (1010.9 mb)
Winds:calm
Visibility: 5 sm ( 8 km)
Ceiling:1000 feet AGL
Clouds: scattered clouds at 500 feet AGL, broken clouds at 1000 feet AGL, overcast cloud deck at 3300 feet AGL
Weather:-RA (light rain)
QC Flag:automated observation with no human augmentation
Text:K6B9 080435Z AUTO 00000KT 6SM -RA BKN006 BKN013 OVC033 05/05 A2986 RMK AO2
Temperature: 5.0°C ( 41°F)
Dewpoint: 5.0°C ( 41°F) [RH = 100%]
Pressure (altimeter):29.86 inches Hg (1011.3 mb)
Winds:calm
Visibility: 6 sm ( 10 km)
Ceiling:600 feet AGL
Clouds: broken clouds at 600 feet AGL, broken clouds at 1300 feet AGL, overcast cloud deck at 3300 feet AGL
Weather:-RA (light rain)
QC Flag:automated observation with no human augmentation
Text:K6B9 080415Z AUTO 00000KT 7SM -RA BKN005 OVC033 05/05 A2986 RMK AO2
Temperature: 5.0°C ( 41°F)
Dewpoint: 5.0°C ( 41°F) [RH = 100%]
Pressure (altimeter):29.86 inches Hg (1011.3 mb)
Winds:calm
Visibility: 7 sm ( 11 km)
Ceiling:500 feet AGL
Clouds: broken clouds at 500 feet AGL, overcast cloud deck at 3300 feet AGL
Weather:-RA (light rain)
QC Flag:automated observation with no human augmentation
Text:K6B9 080355Z AUTO VRB04KT 6SM -RA BKN005 BKN011 OVC032 05/05 A2987 RMK AO2 P0004
Temperature: 5.0°C ( 41°F)
Dewpoint: 5.0°C ( 41°F) [RH = 100%]
Pressure (altimeter):29.87 inches Hg (1011.6 mb)
Winds:variable direction winds at 5 MPH (4 knots; 2.1 m/s)
Visibility: 6 sm ( 10 km)
Ceiling:500 feet AGL
Clouds: broken clouds at 500 feet AGL, broken clouds at 1100 feet AGL, overcast cloud deck at 3200 feet AGL
Weather:-RA (light rain)
QC Flag:automated observation with no human augmentation
Text:K6B9 080335Z AUTO 36005KT 6SM -RA BKN004 BKN008 OVC018 05/05 A2987 RMK AO2
Temperature: 5.0°C ( 41°F)
Dewpoint: 5.0°C ( 41°F) [RH = 100%]
Pressure (altimeter):29.87 inches Hg (1011.6 mb)
Winds:from the N (360 degrees) at 6 MPH (5 knots; 2.6 m/s)
Visibility: 6 sm ( 10 km)
Ceiling:400 feet AGL
Clouds: broken clouds at 400 feet AGL, broken clouds at 800 feet AGL, overcast cloud deck at 1800 feet AGL
Weather:-RA (light rain)
QC Flag:automated observation with no human augmentation
Text:K6B9 080315Z AUTO VRB03KT 5SM -RA OVC004 05/05 A2988 RMK AO2
Temperature: 5.0°C ( 41°F)
Dewpoint: 5.0°C ( 41°F) [RH = 100%]
Pressure (altimeter):29.88 inches Hg (1011.9 mb)
Winds:variable direction winds at 3 MPH (3 knots; 1.5 m/s)
Visibility: 5 sm ( 8 km)
Ceiling:400 feet AGL
Clouds: overcast cloud deck at 400 feet AGL
Weather:-RA (light rain)
QC Flag:automated observation with no human augmentation
Text:K6B9 080255Z AUTO VRB04KT 4SM -RA OVC004 05/05 A2988 RMK AO2 P0011
Temperature: 5.0°C ( 41°F)
Dewpoint: 5.0°C ( 41°F) [RH = 100%]
Pressure (altimeter):29.88 inches Hg (1011.9 mb)
Winds:variable direction winds at 5 MPH (4 knots; 2.1 m/s)
Visibility: 4 sm ( 6 km)
Ceiling:400 feet AGL
Clouds: overcast cloud deck at 400 feet AGL
Weather:-RA (light rain)
QC Flag:automated observation with no human augmentation
Text:K6B9 080235Z AUTO VRB04KT 3SM RA BKN004 OVC008 05/05 A2989 RMK AO2
Temperature: 5.0°C ( 41°F)
Dewpoint: 5.0°C ( 41°F) [RH = 100%]
Pressure (altimeter):29.89 inches Hg (1012.3 mb)
Winds:variable direction winds at 5 MPH (4 knots; 2.1 m/s)
Visibility: 3 sm ( 5 km)
Ceiling:400 feet AGL
Clouds: broken clouds at 400 feet AGL, overcast cloud deck at 800 feet AGL
Weather:RA (moderate rain)
QC Flag:automated observation with no human augmentation
Text:K6B9 080215Z AUTO VRB05KT 4SM RA OVC004 05/05 A2989 RMK AO2
Temperature: 5.0°C ( 41°F)
Dewpoint: 5.0°C ( 41°F) [RH = 100%]
Pressure (altimeter):29.89 inches Hg (1012.3 mb)
Winds:variable direction winds at 6 MPH (5 knots; 2.6 m/s)
Visibility: 4 sm ( 6 km)
Ceiling:400 feet AGL
Clouds: overcast cloud deck at 400 feet AGL
Weather:RA (moderate rain)
QC Flag:automated observation with no human augmentation
Text:K6B9 080155Z AUTO 02007KT 5SM -RA OVC004 05/05 A2989 RMK AO2 P0010
Temperature: 5.0°C ( 41°F)
Dewpoint: 5.0°C ( 41°F) [RH = 100%]
Pressure (altimeter):29.89 inches Hg (1012.3 mb)
Winds:from the NNE (20 degrees) at 8 MPH (7 knots; 3.6 m/s)
Visibility: 5 sm ( 8 km)
Ceiling:400 feet AGL
Clouds: overcast cloud deck at 400 feet AGL
Weather:-RA (light rain)
QC Flag:automated observation with no human augmentation
Text:K6B9 080135Z AUTO 01005KT 4SM RA OVC005 05/05 A2989 RMK AO2
Temperature: 5.0°C ( 41°F)
Dewpoint: 5.0°C ( 41°F) [RH = 100%]
Pressure (altimeter):29.89 inches Hg (1012.3 mb)
Winds:from the N (10 degrees) at 6 MPH (5 knots; 2.6 m/s)
Visibility: 4 sm ( 6 km)
Ceiling:500 feet AGL
Clouds: overcast cloud deck at 500 feet AGL
Weather:RA (moderate rain)
QC Flag:automated observation with no human augmentation
Text:K6B9 080115Z AUTO 01006KT 7SM -RA OVC005 05/05 A2989 RMK AO2
Temperature: 5.0°C ( 41°F)
Dewpoint: 5.0°C ( 41°F) [RH = 100%]
Pressure (altimeter):29.89 inches Hg (1012.3 mb)
Winds:from the N (10 degrees) at 7 MPH (6 knots; 3.1 m/s)
Visibility: 7 sm ( 11 km)
Ceiling:500 feet AGL
Clouds: overcast cloud deck at 500 feet AGL
Weather:-RA (light rain)
QC Flag:automated observation with no human augmentation
Text:K6B9 080055Z AUTO 01004G10KT 7SM -UP OVC005 06/05 A2989 RMK AO2 P0002
Temperature: 6.0°C ( 43°F)
Dewpoint: 5.0°C ( 41°F) [RH = 93%]
Pressure (altimeter):29.89 inches Hg (1012.3 mb)
Winds:from the N (10 degrees) at 5 MPH (4 knots; 2.1 m/s) gusting to 12 MPH (10 knots; 5.1 m/s)
Visibility: 7 sm ( 11 km)
Ceiling:500 feet AGL
Clouds: overcast cloud deck at 500 feet AGL
Weather:UP (unknown precipitation)
QC Flag:automated observation with no human augmentation
Text:K6B9 080035Z AUTO 02006G11KT 8SM OVC005 06/05 A2989 RMK AO2
Temperature: 6.0°C ( 43°F)
Dewpoint: 5.0°C ( 41°F) [RH = 93%]
Pressure (altimeter):29.89 inches Hg (1012.3 mb)
Winds:from the NNE (20 degrees) at 7 MPH (6 knots; 3.1 m/s) gusting to 13 MPH (11 knots; 5.7 m/s)
Visibility: 8 sm ( 13 km)
Ceiling:500 feet AGL
Clouds: overcast cloud deck at 500 feet AGL
QC Flag:automated observation with no human augmentation
Text:K6B9 080015Z AUTO 01008KT 5SM -RA OVC007 06/05 A2989 RMK AO2
Temperature: 6.0°C ( 43°F)
Dewpoint: 5.0°C ( 41°F) [RH = 93%]
Pressure (altimeter):29.89 inches Hg (1012.3 mb)
Winds:from the N (10 degrees) at 9 MPH (8 knots; 4.1 m/s)
Visibility: 5 sm ( 8 km)
Ceiling:700 feet AGL
Clouds: overcast cloud deck at 700 feet AGL
Weather:-RA (light rain)
QC Flag:automated observation with no human augmentation
Text:K6B9 072355Z AUTO 36009KT 5SM -RA BKN005 OVC009 06/06 A2989 RMK AO2 P0002
Temperature: 6.0°C ( 43°F)
Dewpoint: 6.0°C ( 43°F) [RH = 100%]
Pressure (altimeter):29.89 inches Hg (1012.3 mb)
Winds:from the N (360 degrees) at 10 MPH (9 knots; 4.6 m/s)
Visibility: 5 sm ( 8 km)
Ceiling:500 feet AGL
Clouds: broken clouds at 500 feet AGL, overcast cloud deck at 900 feet AGL
Weather:-RA (light rain)
QC Flag:automated observation with no human augmentation
Text:K6B9 072335Z AUTO VRB06KT 6SM -RA BKN005 BKN008 OVC029 06/06 A2989 RMK AO2
Temperature: 6.0°C ( 43°F)
Dewpoint: 6.0°C ( 43°F) [RH = 100%]
Pressure (altimeter):29.89 inches Hg (1012.3 mb)
Winds:variable direction winds at 7 MPH (6 knots; 3.1 m/s)
Visibility: 6 sm ( 10 km)
Ceiling:500 feet AGL
Clouds: broken clouds at 500 feet AGL, broken clouds at 800 feet AGL, overcast cloud deck at 2900 feet AGL
Weather:-RA (light rain)
QC Flag:automated observation with no human augmentation
Text:K6B9 072315Z AUTO 01006G11KT 6SM -RA SCT006 BKN009 BKN029 06/06 A2989 RMK AO2
Temperature: 6.0°C ( 43°F)
Dewpoint: 6.0°C ( 43°F) [RH = 100%]
Pressure (altimeter):29.89 inches Hg (1012.3 mb)
Winds:from the N (10 degrees) at 7 MPH (6 knots; 3.1 m/s) gusting to 13 MPH (11 knots; 5.7 m/s)
Visibility: 6 sm ( 10 km)
Ceiling:900 feet AGL
Clouds: scattered clouds at 600 feet AGL, broken clouds at 900 feet AGL, broken clouds at 2900 feet AGL
Weather:-RA (light rain)
QC Flag:automated observation with no human augmentation
Text:K6B9 072255Z AUTO 36008KT 6SM -RA SCT006 BKN027 BKN038 06/06 A2989 RMK AO2 P0003
Temperature: 6.0°C ( 43°F)
Dewpoint: 6.0°C ( 43°F) [RH = 100%]
Pressure (altimeter):29.89 inches Hg (1012.3 mb)
Winds:from the N (360 degrees) at 9 MPH (8 knots; 4.1 m/s)
Visibility: 6 sm ( 10 km)
Ceiling:2700 feet AGL
Clouds: scattered clouds at 600 feet AGL, broken clouds at 2700 feet AGL, broken clouds at 3800 feet AGL
Weather:-RA (light rain)
QC Flag:automated observation with no human augmentation
Text:K6B9 072235Z AUTO 01007G13KT 8SM -RA FEW007 SCT012 OVC028 07/07 A2989 RMK AO2
Temperature: 7.0°C ( 45°F)
Dewpoint: 7.0°C ( 45°F) [RH = 100%]
Pressure (altimeter):29.89 inches Hg (1012.3 mb)
Winds:from the N (10 degrees) at 8 MPH (7 knots; 3.6 m/s) gusting to 15 MPH (13 knots; 6.7 m/s)
Visibility: 8 sm ( 13 km)
Ceiling:2800 feet AGL
Clouds: few clouds at 700 feet AGL, scattered clouds at 1200 feet AGL, overcast cloud deck at 2800 feet AGL
Weather:-RA (light rain)
QC Flag:automated observation with no human augmentation
Text:K6B9 072215Z AUTO VRB06G14KT 6SM -RA BKN028 OVC036 07/07 A2989 RMK AO2
Temperature: 7.0°C ( 45°F)
Dewpoint: 7.0°C ( 45°F) [RH = 100%]
Pressure (altimeter):29.89 inches Hg (1012.3 mb)
Winds:variable direction winds at 7 MPH (6 knots; 3.1 m/s) gusting to 16 MPH (14 knots; 7.2 m/s)
Visibility: 6 sm ( 10 km)
Ceiling:2800 feet AGL
Clouds: broken clouds at 2800 feet AGL, overcast cloud deck at 3600 feet AGL
Weather:-RA (light rain)
QC Flag:automated observation with no human augmentation
Text:K6B9 072155Z AUTO 01007G13KT 9SM -RA OVC029 08/07 A2989 RMK AO2
Temperature: 8.0°C ( 46°F)
Dewpoint: 7.0°C ( 45°F) [RH = 93%]
Pressure (altimeter):29.89 inches Hg (1012.3 mb)
Winds:from the N (10 degrees) at 8 MPH (7 knots; 3.6 m/s) gusting to 15 MPH (13 knots; 6.7 m/s)
Visibility: 9 sm ( 14 km)
Ceiling:2900 feet AGL
Clouds: overcast cloud deck at 2900 feet AGL
Weather:-RA (light rain)
QC Flag:automated observation with no human augmentation
Text:K6B9 072135Z AUTO 01003KT 7SM -RA OVC031 08/06 A2989 RMK AO2
Temperature: 8.0°C ( 46°F)
Dewpoint: 6.0°C ( 43°F) [RH = 87%]
Pressure (altimeter):29.89 inches Hg (1012.3 mb)
Winds:from the N (10 degrees) at 3 MPH (3 knots; 1.5 m/s)
Visibility: 7 sm ( 11 km)
Ceiling:3100 feet AGL
Clouds: overcast cloud deck at 3100 feet AGL
Weather:-RA (light rain)
QC Flag:automated observation with no human augmentation
Text:K6B9 072115Z AUTO 02004KT 6SM -RA BKN032 OVC038 09/05 A2989 RMK AO2
Temperature: 9.0°C ( 48°F)
Dewpoint: 5.0°C ( 41°F) [RH = 76%]
Pressure (altimeter):29.89 inches Hg (1012.3 mb)
Winds:from the NNE (20 degrees) at 5 MPH (4 knots; 2.1 m/s)
Visibility: 6 sm ( 10 km)
Ceiling:3200 feet AGL
Clouds: broken clouds at 3200 feet AGL, overcast cloud deck at 3800 feet AGL
Weather:-RA (light rain)
QC Flag:automated observation with no human augmentation
Text:K6B9 072055Z AUTO 00000KT 10SM -DZ BKN036 10/04 A2988 RMK AO2
Temperature: 10.0°C ( 50°F)
Dewpoint: 4.0°C ( 39°F) [RH = 66%]
Pressure (altimeter):29.88 inches Hg (1011.9 mb)
Winds:calm
Visibility:10 or more sm (16+ km)
Ceiling:3600 feet AGL
Clouds: broken clouds at 3600 feet AGL
Weather:-DZ (light drizzle)
QC Flag:automated observation with no human augmentation
Text:K6B9 072035Z AUTO VRB04KT 10SM SCT038 BKN050 10/02 A2988 RMK AO2
Temperature: 10.0°C ( 50°F)
Dewpoint: 2.0°C ( 36°F) [RH = 57%]
Pressure (altimeter):29.88 inches Hg (1011.9 mb)
Winds:variable direction winds at 5 MPH (4 knots; 2.1 m/s)
Visibility:10 or more sm (16+ km)
Ceiling:5000 feet AGL
Clouds: scattered clouds at 3800 feet AGL, broken clouds at 5000 feet AGL
QC Flag:automated observation with no human augmentation
Text:K6B9 072015Z AUTO 00000KT 10SM FEW043 BKN050 10/03 A2988 RMK AO2
Temperature: 10.0°C ( 50°F)
Dewpoint: 3.0°C ( 37°F) [RH = 62%]
Pressure (altimeter):29.88 inches Hg (1011.9 mb)
Winds:calm
Visibility:10 or more sm (16+ km)
Ceiling:5000 feet AGL
Clouds: few clouds at 4300 feet AGL, broken clouds at 5000 feet AGL
QC Flag:automated observation with no human augmentation
Text:K6B9 071955Z AUTO VRB04KT 10SM SCT044 BKN050 10/03 A2988 RMK AO2
Temperature: 10.0°C ( 50°F)
Dewpoint: 3.0°C ( 37°F) [RH = 62%]
Pressure (altimeter):29.88 inches Hg (1011.9 mb)
Winds:variable direction winds at 5 MPH (4 knots; 2.1 m/s)
Visibility:10 or more sm (16+ km)
Ceiling:5000 feet AGL
Clouds: scattered clouds at 4400 feet AGL, broken clouds at 5000 feet AGL
QC Flag:automated observation with no human augmentation